createdAt,value
2019-05-16T00:05:22.401Z,94.90
2019-05-16T00:07:42.937Z,96.00
2019-05-16T00:10:12.858Z,95.90
2019-05-16T00:12:42.310Z,96.30
2019-05-16T00:15:12.370Z,96.70
2019-05-16T00:17:43.545Z,97.10
2019-05-16T00:20:19.221Z,97.20
2019-05-16T00:22:53.243Z,97.50
2019-05-16T00:25:22.775Z,98.30
2019-05-16T00:27:52.139Z,98.80
2019-05-16T00:30:22.056Z,99.30
2019-05-16T00:32:51.462Z,99.90
2019-05-16T00:35:28.328Z,99.90
2019-05-16T00:37:58.921Z,99.90
2019-05-16T00:40:28.649Z,99.90
2019-05-16T00:42:58.882Z,99.90
2019-05-16T00:45:30.302Z,99.90
2019-05-16T00:47:59.738Z,99.90
2019-05-16T00:50:29.212Z,99.90
2019-05-16T00:52:59.147Z,99.90
2019-05-16T00:55:32.842Z,99.90
2019-05-16T00:58:04.743Z,99.90
2019-05-16T01:00:50.328Z,99.90
2019-05-16T01:03:20.622Z,99.90
2019-05-16T01:05:50.087Z,99.90
2019-05-16T01:08:19.359Z,99.90
2019-05-16T01:10:51.434Z,99.90
2019-05-16T01:13:20.302Z,99.90
2019-05-16T01:15:49.800Z,99.90
2019-05-16T01:18:19.415Z,99.90
2019-05-16T01:20:48.946Z,99.90
2019-05-16T01:23:18.477Z,99.90
2019-05-16T01:25:48.473Z,99.90
2019-05-16T01:28:18.479Z,99.90
2019-05-16T01:30:48.944Z,99.90
2019-05-16T01:33:19.196Z,99.90
2019-05-16T01:35:49.604Z,99.90
2019-05-16T01:41:11.810Z,99.90
2019-05-16T01:43:41.103Z,99.90
2019-05-16T01:46:10.642Z,99.90
2019-05-16T01:51:08.458Z,99.90
2019-05-16T01:53:39.457Z,99.90
2019-05-16T01:56:09.178Z,99.90
2019-05-16T01:58:38.517Z,99.90
2019-05-16T02:01:13.204Z,99.90
2019-05-16T02:03:38.896Z,99.90
2019-05-16T02:06:09.012Z,99.90
2019-05-16T02:08:38.308Z,99.90
2019-05-16T02:11:08.533Z,99.90
2019-05-16T02:13:39.071Z,99.90
2019-05-16T02:16:08.800Z,99.90
2019-05-16T02:18:38.298Z,99.90
2019-05-16T02:21:07.971Z,99.90
2019-05-16T02:23:38.366Z,99.90
2019-05-16T02:26:08.008Z,99.90
2019-05-16T02:31:06.640Z,99.90
2019-05-16T02:33:35.949Z,99.90
2019-05-16T02:36:05.297Z,99.90
2019-05-16T02:38:34.710Z,99.90
2019-05-16T02:41:04.093Z,99.90
2019-05-16T02:43:33.635Z,99.90
2019-05-16T02:46:03.188Z,99.90
2019-05-16T02:48:35.450Z,99.90
2019-05-16T02:51:03.531Z,99.90
2019-05-16T02:56:01.854Z,99.90
2019-05-16T02:58:31.434Z,99.90
2019-05-16T03:01:01.811Z,99.90
2019-05-16T03:03:32.569Z,99.90
2019-05-16T03:06:03.023Z,99.90
2019-05-16T03:08:33.338Z,99.90
2019-05-16T03:11:06.556Z,99.90
2019-05-16T03:13:42.132Z,99.90
2019-05-16T03:16:12.485Z,99.90
2019-05-16T03:18:42.654Z,99.90
2019-05-16T03:21:13.000Z,99.90
2019-05-16T03:23:42.441Z,99.90
2019-05-16T03:26:14.328Z,99.90
2019-05-16T03:28:43.629Z,99.90
2019-05-16T03:31:25.369Z,99.90
2019-05-16T03:35:04.587Z,99.90
2019-05-16T03:37:49.922Z,99.90
2019-05-16T03:40:07.632Z,99.90
2019-05-16T03:42:37.189Z,99.90
2019-05-16T03:45:06.783Z,99.90
2019-05-16T03:47:42.764Z,99.90
2019-05-16T03:50:11.265Z,99.90
2019-05-16T03:52:43.663Z,99.90
2019-05-16T03:55:12.264Z,99.90
2019-05-16T03:57:42.026Z,99.90
2019-05-16T04:00:12.598Z,99.90
2019-05-16T04:02:45.596Z,99.90
2019-05-16T04:05:13.657Z,99.90
2019-05-16T04:07:43.090Z,99.90
2019-05-16T04:10:13.058Z,99.90
2019-05-16T04:12:42.408Z,99.90
2019-05-16T04:17:41.446Z,99.90
2019-05-16T04:20:11.993Z,99.90
2019-05-16T04:22:41.560Z,99.90
2019-05-16T04:25:11.790Z,99.90
2019-05-16T04:27:42.014Z,99.90
2019-05-16T04:30:12.359Z,99.90
2019-05-16T04:32:42.357Z,99.90
2019-05-16T04:35:12.526Z,99.90
2019-05-16T04:37:42.746Z,99.90
2019-05-16T04:40:12.676Z,99.90
2019-05-16T04:42:42.151Z,99.90
2019-05-16T04:45:13.046Z,99.90
2019-05-16T04:47:42.447Z,99.90
2019-05-16T04:50:12.864Z,99.90
2019-05-16T04:52:42.263Z,99.90
2019-05-16T04:55:12.335Z,99.90
2019-05-16T04:57:42.625Z,99.90
2019-05-16T05:00:14.227Z,99.90
2019-05-16T05:02:43.637Z,99.90
2019-05-16T05:05:14.278Z,99.90
2019-05-16T05:07:43.577Z,99.90
2019-05-16T05:10:13.642Z,99.90
2019-05-16T05:12:42.940Z,99.90
2019-05-16T05:15:13.356Z,99.90
2019-05-16T05:17:42.721Z,99.90
2019-05-16T05:20:12.187Z,99.90
2019-05-16T05:22:41.514Z,99.90
2019-05-16T05:25:11.158Z,99.90
2019-05-16T05:27:41.241Z,99.90
2019-05-16T05:30:11.820Z,99.90
2019-05-16T05:32:41.512Z,99.90
2019-05-16T05:35:11.877Z,99.90
2019-05-16T05:37:41.257Z,99.90
2019-05-16T05:40:13.121Z,99.90
2019-05-16T05:42:42.434Z,99.90
2019-05-16T05:45:12.840Z,99.90
2019-05-16T05:47:42.198Z,99.90
2019-05-16T05:50:14.597Z,99.90
2019-05-16T05:52:46.209Z,99.90
2019-05-16T05:55:14.968Z,99.90
2019-05-16T05:57:44.289Z,99.00
2019-05-16T06:00:14.491Z,99.60
2019-05-16T06:02:43.833Z,99.50
2019-05-16T06:05:13.802Z,99.50
2019-05-16T06:07:43.095Z,98.70
2019-05-16T06:10:12.970Z,98.50
2019-05-16T06:12:42.844Z,97.80
2019-05-16T06:15:13.656Z,98.30
2019-05-16T06:17:43.001Z,97.80
2019-05-16T06:20:14.873Z,97.30
2019-05-16T06:22:44.081Z,97.30
2019-05-16T06:25:14.118Z,96.80
2019-05-16T06:27:43.539Z,96.50
2019-05-16T06:30:13.457Z,96.50
2019-05-16T06:32:42.812Z,96.90
2019-05-16T06:35:12.814Z,96.40
2019-05-16T06:37:42.379Z,95.40
2019-05-16T06:42:40.491Z,95.10
2019-05-16T06:45:10.524Z,93.80
2019-05-16T06:47:40.032Z,93.60
2019-05-16T06:50:11.442Z,93.60
2019-05-16T06:52:41.110Z,93.40
2019-05-16T06:55:11.073Z,93.30
2019-05-16T06:57:41.028Z,93.30
2019-05-16T07:00:11.534Z,91.70
2019-05-16T07:02:41.109Z,91.70
2019-05-16T07:05:10.787Z,91.70
2019-05-16T07:07:40.690Z,92.30
2019-05-16T07:10:10.900Z,92.80
2019-05-16T07:12:41.325Z,92.30
2019-05-16T07:15:12.712Z,92.00
2019-05-16T07:17:42.099Z,92.40
2019-05-16T07:20:14.190Z,92.20
2019-05-16T07:22:43.508Z,92.10
2019-05-16T07:25:14.171Z,92.70
2019-05-16T07:27:43.521Z,92.40
2019-05-16T07:30:14.795Z,92.70
2019-05-16T07:32:44.138Z,92.70
2019-05-16T07:35:14.129Z,92.90
2019-05-16T07:37:43.476Z,91.90
2019-05-16T07:40:23.598Z,91.40
2019-05-16T07:42:44.194Z,91.60
2019-05-16T07:45:13.761Z,92.80
2019-05-16T07:47:43.081Z,90.90
2019-05-16T07:50:13.228Z,91.10
2019-05-16T07:52:42.593Z,90.00
2019-05-16T07:55:13.065Z,90.00
2019-05-16T07:57:42.610Z,90.30
2019-05-16T08:00:12.475Z,91.00
2019-05-16T08:02:41.788Z,89.80
2019-05-16T08:05:11.285Z,90.20
2019-05-16T08:07:41.020Z,89.70
2019-05-16T08:10:11.063Z,90.00
2019-05-16T08:12:40.979Z,88.70
